sensor_id;sensor_type;location;lat;lon;timestamp;P1;durP1;ratioP1;P2;durP2;ratioP2
54679;SDS011;40578;53.178;5.846;2023-05-19T00:00:41;15.27;;;6.90;;
54679;SDS011;40578;53.178;5.846;2023-05-19T00:03:08;11.90;;;6.15;;
54679;SDS011;40578;53.178;5.846;2023-05-19T00:05:35;13.05;;;6.72;;
54679;SDS011;40578;53.178;5.846;2023-05-19T00:08:04;14.98;;;6.13;;
54679;SDS011;40578;53.178;5.846;2023-05-19T00:10:32;13.00;;;6.32;;
54679;SDS011;40578;53.178;5.846;2023-05-19T00:12:58;11.60;;;5.93;;
54679;SDS011;40578;53.178;5.846;2023-05-19T00:15:24;18.27;;;6.23;;
54679;SDS011;40578;53.178;5.846;2023-05-19T00:17:50;12.10;;;5.90;;
54679;SDS011;40578;53.178;5.846;2023-05-19T00:20:16;11.38;;;6.32;;
54679;SDS011;40578;53.178;5.846;2023-05-19T00:22:42;12.10;;;6.50;;
54679;SDS011;40578;53.178;5.846;2023-05-19T00:27:34;13.40;;;6.68;;
54679;SDS011;40578;53.178;5.846;2023-05-19T00:30:00;14.60;;;6.57;;
54679;SDS011;40578;53.178;5.846;2023-05-19T00:32:25;15.93;;;6.97;;
54679;SDS011;40578;53.178;5.846;2023-05-19T00:34:51;13.20;;;6.40;;
54679;SDS011;40578;53.178;5.846;2023-05-19T00:37:16;16.97;;;7.40;;
54679;SDS011;40578;53.178;5.846;2023-05-19T00:39:42;16.40;;;6.87;;
54679;SDS011;40578;53.178;5.846;2023-05-19T00:42:08;14.23;;;6.40;;
54679;SDS011;40578;53.178;5.846;2023-05-19T00:44:35;19.27;;;6.73;;
54679;SDS011;40578;53.178;5.846;2023-05-19T00:47:04;13.93;;;6.68;;
54679;SDS011;40578;53.178;5.846;2023-05-19T00:49:30;14.47;;;6.83;;
54679;SDS011;40578;53.178;5.846;2023-05-19T00:51:55;17.43;;;6.10;;
54679;SDS011;40578;53.178;5.846;2023-05-19T00:54:22;13.88;;;6.10;;
54679;SDS011;40578;53.178;5.846;2023-05-19T00:56:48;14.98;;;6.35;;
54679;SDS011;40578;53.178;5.846;2023-05-19T00:59:14;12.25;;;6.32;;
54679;SDS011;40578;53.178;5.846;2023-05-19T01:01:40;11.10;;;7.00;;
54679;SDS011;40578;53.178;5.846;2023-05-19T01:04:06;16.77;;;6.87;;
54679;SDS011;40578;53.178;5.846;2023-05-19T01:06:34;14.18;;;7.20;;
54679;SDS011;40578;53.178;5.846;2023-05-19T01:09:02;13.00;;;6.68;;
54679;SDS011;40578;53.178;5.846;2023-05-19T01:11:28;15.17;;;6.40;;
54679;SDS011;40578;53.178;5.846;2023-05-19T01:13:54;17.17;;;6.60;;
54679;SDS011;40578;53.178;5.846;2023-05-19T01:33:00;13.57;;;6.25;;
54679;SDS011;40578;53.178;5.846;2023-05-19T01:35:28;15.07;;;6.53;;
54679;SDS011;40578;53.178;5.846;2023-05-19T01:37:56;13.27;;;6.18;;
54679;SDS011;40578;53.178;5.846;2023-05-19T01:40:23;13.43;;;6.22;;
54679;SDS011;40578;53.178;5.846;2023-05-19T01:42:51;12.75;;;6.68;;
54679;SDS011;40578;53.178;5.846;2023-05-19T01:45:19;12.18;;;6.63;;
54679;SDS011;40578;53.178;5.846;2023-05-19T01:47:46;10.77;;;5.93;;
54679;SDS011;40578;53.178;5.846;2023-05-19T01:50:13;12.45;;;5.72;;
54679;SDS011;40578;53.178;5.846;2023-05-19T01:52:39;12.43;;;6.13;;
54679;SDS011;40578;53.178;5.846;2023-05-19T01:55:06;7.82;;;5.45;;
54679;SDS011;40578;53.178;5.846;2023-05-19T01:57:35;9.90;;;5.35;;
54679;SDS011;40578;53.178;5.846;2023-05-19T02:03:11;12.07;;;5.88;;
54679;SDS011;40578;53.178;5.846;2023-05-19T02:11:35;12.50;;;5.95;;
54679;SDS011;40578;53.178;5.846;2023-05-19T02:14:20;11.68;;;6.15;;
54679;SDS011;40578;53.178;5.846;2023-05-19T02:16:57;10.68;;;5.55;;
54679;SDS011;40578;53.178;5.846;2023-05-19T02:19:24;12.90;;;6.00;;
54679;SDS011;40578;53.178;5.846;2023-05-19T02:21:52;11.70;;;5.68;;
54679;SDS011;40578;53.178;5.846;2023-05-19T02:24:18;14.00;;;6.20;;
54679;SDS011;40578;53.178;5.846;2023-05-19T02:26:44;14.57;;;6.28;;
54679;SDS011;40578;53.178;5.846;2023-05-19T02:29:10;13.82;;;5.88;;
54679;SDS011;40578;53.178;5.846;2023-05-19T02:31:36;12.30;;;6.00;;
54679;SDS011;40578;53.178;5.846;2023-05-19T02:34:02;16.90;;;6.37;;
54679;SDS011;40578;53.178;5.846;2023-05-19T02:36:27;14.30;;;6.57;;
54679;SDS011;40578;53.178;5.846;2023-05-19T02:38:54;11.32;;;6.15;;
54679;SDS011;40578;53.178;5.846;2023-05-19T02:41:20;12.85;;;6.43;;
54679;SDS011;40578;53.178;5.846;2023-05-19T02:43:46;13.47;;;6.10;;
54679;SDS011;40578;53.178;5.846;2023-05-19T02:46:12;16.47;;;6.77;;
54679;SDS011;40578;53.178;5.846;2023-05-19T02:48:37;14.43;;;6.80;;
54679;SDS011;40578;53.178;5.846;2023-05-19T02:51:03;14.30;;;6.93;;
54679;SDS011;40578;53.178;5.846;2023-05-19T02:53:29;14.63;;;6.23;;
54679;SDS011;40578;53.178;5.846;2023-05-19T02:55:56;13.65;;;6.07;;
54679;SDS011;40578;53.178;5.846;2023-05-19T02:58:21;12.43;;;5.70;;
54679;SDS011;40578;53.178;5.846;2023-05-19T03:00:47;12.90;;;6.07;;
54679;SDS011;40578;53.178;5.846;2023-05-19T03:03:12;11.43;;;5.33;;
54679;SDS011;40578;53.178;5.846;2023-05-19T03:05:38;9.68;;;5.25;;
54679;SDS011;40578;53.178;5.846;2023-05-19T03:08:05;11.85;;;5.45;;
54679;SDS011;40578;53.178;5.846;2023-05-19T03:10:30;11.60;;;5.77;;
54679;SDS011;40578;53.178;5.846;2023-05-19T03:12:56;12.80;;;6.03;;
54679;SDS011;40578;53.178;5.846;2023-05-19T03:15:22;12.83;;;6.50;;
54679;SDS011;40578;53.178;5.846;2023-05-19T03:17:47;15.03;;;6.60;;
54679;SDS011;40578;53.178;5.846;2023-05-19T03:20:13;13.30;;;5.83;;
54679;SDS011;40578;53.178;5.846;2023-05-19T03:22:40;16.85;;;6.57;;
54679;SDS011;40578;53.178;5.846;2023-05-19T03:25:05;17.60;;;6.03;;
54679;SDS011;40578;53.178;5.846;2023-05-19T03:27:31;17.13;;;6.27;;
54679;SDS011;40578;53.178;5.846;2023-05-19T03:29:57;13.37;;;6.47;;
54679;SDS011;40578;53.178;5.846;2023-05-19T03:32:22;17.33;;;6.87;;
54679;SDS011;40578;53.178;5.846;2023-05-19T03:34:48;11.80;;;6.10;;
54679;SDS011;40578;53.178;5.846;2023-05-19T03:37:13;11.33;;;6.00;;
54679;SDS011;40578;53.178;5.846;2023-05-19T03:39:39;14.90;;;6.37;;
54679;SDS011;40578;53.178;5.846;2023-05-19T03:42:05;14.27;;;6.37;;
54679;SDS011;40578;53.178;5.846;2023-05-19T03:44:30;14.63;;;6.50;;
54679;SDS011;40578;53.178;5.846;2023-05-19T03:46:56;12.83;;;6.57;;
54679;SDS011;40578;53.178;5.846;2023-05-19T03:49:21;14.80;;;6.37;;
54679;SDS011;40578;53.178;5.846;2023-05-19T03:51:47;12.73;;;6.07;;
54679;SDS011;40578;53.178;5.846;2023-05-19T03:54:13;11.80;;;6.43;;
54679;SDS011;40578;53.178;5.846;2023-05-19T03:56:38;12.93;;;6.20;;
54679;SDS011;40578;53.178;5.846;2023-05-19T03:59:06;13.65;;;5.93;;
54679;SDS011;40578;53.178;5.846;2023-05-19T04:01:32;13.40;;;6.17;;
54679;SDS011;40578;53.178;5.846;2023-05-19T04:03:57;13.53;;;6.00;;
54679;SDS011;40578;53.178;5.846;2023-05-19T04:06:23;17.63;;;6.53;;
54679;SDS011;40578;53.178;5.846;2023-05-19T04:08:49;12.77;;;6.10;;
54679;SDS011;40578;53.178;5.846;2023-05-19T04:11:14;15.83;;;6.40;;
54679;SDS011;40578;53.178;5.846;2023-05-19T04:13:40;15.20;;;6.30;;
54679;SDS011;40578;53.178;5.846;2023-05-19T04:16:06;13.73;;;5.90;;
54679;SDS011;40578;53.178;5.846;2023-05-19T04:18:31;11.50;;;5.90;;
54679;SDS011;40578;53.178;5.846;2023-05-19T04:20:57;15.30;;;6.40;;
54679;SDS011;40578;53.178;5.846;2023-05-19T04:23:22;15.33;;;6.73;;
54679;SDS011;40578;53.178;5.846;2023-05-19T04:25:48;11.53;;;6.20;;
54679;SDS011;40578;53.178;5.846;2023-05-19T04:28:14;14.43;;;6.30;;
54679;SDS011;40578;53.178;5.846;2023-05-19T04:30:40;14.43;;;6.40;;
54679;SDS011;40578;53.178;5.846;2023-05-19T04:33:06;14.85;;;6.00;;
54679;SDS011;40578;53.178;5.846;2023-05-19T04:35:33;14.00;;;6.20;;
54679;SDS011;40578;53.178;5.846;2023-05-19T04:37:58;12.50;;;6.43;;
54679;SDS011;40578;53.178;5.846;2023-05-19T04:40:25;14.85;;;5.90;;
54679;SDS011;40578;53.178;5.846;2023-05-19T04:42:51;11.80;;;6.03;;
54679;SDS011;40578;53.178;5.846;2023-05-19T04:45:18;11.10;;;5.90;;
54679;SDS011;40578;53.178;5.846;2023-05-19T04:47:43;14.07;;;5.80;;
54679;SDS011;40578;53.178;5.846;2023-05-19T04:50:12;14.93;;;6.10;;
54679;SDS011;40578;53.178;5.846;2023-05-19T04:52:38;14.57;;;6.53;;
54679;SDS011;40578;53.178;5.846;2023-05-19T04:55:05;12.70;;;6.28;;
54679;SDS011;40578;53.178;5.846;2023-05-19T04:57:31;14.23;;;6.47;;
54679;SDS011;40578;53.178;5.846;2023-05-19T04:59:57;15.53;;;5.87;;
54679;SDS011;40578;53.178;5.846;2023-05-19T05:02:27;11.60;;;5.90;;
54679;SDS011;40578;53.178;5.846;2023-05-19T05:04:53;10.98;;;5.80;;
54679;SDS011;40578;53.178;5.846;2023-05-19T05:07:20;10.55;;;5.68;;
54679;SDS011;40578;53.178;5.846;2023-05-19T05:09:46;17.48;;;6.97;;
54679;SDS011;40578;53.178;5.846;2023-05-19T05:12:12;14.37;;;5.93;;
54679;SDS011;40578;53.178;5.846;2023-05-19T05:17:05;16.17;;;6.15;;
54679;SDS011;40578;53.178;5.846;2023-05-19T05:19:32;11.02;;;5.85;;
54679;SDS011;40578;53.178;5.846;2023-05-19T05:21:58;12.48;;;6.10;;
54679;SDS011;40578;53.178;5.846;2023-05-19T05:24:24;11.82;;;5.50;;
54679;SDS011;40578;53.178;5.846;2023-05-19T05:26:50;11.88;;;5.95;;
54679;SDS011;40578;53.178;5.846;2023-05-19T05:29:16;13.10;;;5.30;;
54679;SDS011;40578;53.178;5.846;2023-05-19T05:31:41;12.30;;;5.57;;
54679;SDS011;40578;53.178;5.846;2023-05-19T05:34:07;14.07;;;5.13;;
54679;SDS011;40578;53.178;5.846;2023-05-19T05:36:33;9.53;;;5.03;;
54679;SDS011;40578;53.178;5.846;2023-05-19T05:38:59;15.70;;;5.63;;
54679;SDS011;40578;53.178;5.846;2023-05-19T05:41:26;13.32;;;5.53;;
54679;SDS011;40578;53.178;5.846;2023-05-19T05:46:18;16.58;;;5.78;;
54679;SDS011;40578;53.178;5.846;2023-05-19T05:48:44;11.07;;;5.47;;
54679;SDS011;40578;53.178;5.846;2023-05-19T05:51:11;18.08;;;5.60;;
54679;SDS011;40578;53.178;5.846;2023-05-19T05:53:39;12.33;;;5.40;;
54679;SDS011;40578;53.178;5.846;2023-05-19T05:56:07;11.02;;;5.72;;
54679;SDS011;40578;53.178;5.846;2023-05-19T05:58:34;14.18;;;5.75;;
54679;SDS011;40578;53.178;5.846;2023-05-19T06:01:01;11.95;;;5.60;;
54679;SDS011;40578;53.178;5.846;2023-05-19T06:03:28;13.00;;;5.45;;
54679;SDS011;40578;53.178;5.846;2023-05-19T06:05:56;10.73;;;6.07;;
54679;SDS011;40578;53.178;5.846;2023-05-19T06:08:21;14.70;;;6.20;;
54679;SDS011;40578;53.178;5.846;2023-05-19T06:10:47;12.17;;;5.70;;
54679;SDS011;40578;53.178;5.846;2023-05-19T06:13:13;13.97;;;6.03;;
54679;SDS011;40578;53.178;5.846;2023-05-19T06:15:41;13.88;;;6.00;;
54679;SDS011;40578;53.178;5.846;2023-05-19T06:18:07;8.97;;;5.53;;
54679;SDS011;40578;53.178;5.846;2023-05-19T06:20:32;11.30;;;5.83;;
54679;SDS011;40578;53.178;5.846;2023-05-19T06:22:59;12.33;;;5.33;;
54679;SDS011;40578;53.178;5.846;2023-05-19T06:25:25;10.98;;;5.90;;
54679;SDS011;40578;53.178;5.846;2023-05-19T06:27:50;12.13;;;6.13;;
54679;SDS011;40578;53.178;5.846;2023-05-19T06:30:16;13.27;;;6.10;;
54679;SDS011;40578;53.178;5.846;2023-05-19T06:32:42;13.03;;;5.90;;
54679;SDS011;40578;53.178;5.846;2023-05-19T06:35:08;8.70;;;5.13;;
54679;SDS011;40578;53.178;5.846;2023-05-19T06:37:33;12.47;;;6.10;;
54679;SDS011;40578;53.178;5.846;2023-05-19T06:39:59;17.43;;;5.67;;
54679;SDS011;40578;53.178;5.846;2023-05-19T06:42:24;14.63;;;6.80;;
54679;SDS011;40578;53.178;5.846;2023-05-19T06:44:50;10.67;;;5.90;;
54679;SDS011;40578;53.178;5.846;2023-05-19T06:47:16;11.70;;;5.88;;
54679;SDS011;40578;53.178;5.846;2023-05-19T06:49:43;10.93;;;6.22;;
54679;SDS011;40578;53.178;5.846;2023-05-19T06:52:09;15.45;;;6.20;;
54679;SDS011;40578;53.178;5.846;2023-05-19T06:54:35;15.85;;;6.32;;
54679;SDS011;40578;53.178;5.846;2023-05-19T06:57:01;12.20;;;6.50;;
54679;SDS011;40578;53.178;5.846;2023-05-19T06:59:27;12.30;;;6.00;;
54679;SDS011;40578;53.178;5.846;2023-05-19T07:01:53;14.63;;;6.40;;
54679;SDS011;40578;53.178;5.846;2023-05-19T07:04:19;9.37;;;5.60;;
54679;SDS011;40578;53.178;5.846;2023-05-19T07:06:44;10.70;;;5.67;;
54679;SDS011;40578;53.178;5.846;2023-05-19T07:09:10;10.20;;;5.90;;
54679;SDS011;40578;53.178;5.846;2023-05-19T07:11:35;10.43;;;5.73;;
54679;SDS011;40578;53.178;5.846;2023-05-19T07:14:01;8.67;;;4.77;;
54679;SDS011;40578;53.178;5.846;2023-05-19T07:16:27;11.53;;;5.33;;
54679;SDS011;40578;53.178;5.846;2023-05-19T07:18:52;10.07;;;4.90;;
54679;SDS011;40578;53.178;5.846;2023-05-19T07:21:18;10.10;;;4.73;;
54679;SDS011;40578;53.178;5.846;2023-05-19T07:23:43;11.80;;;5.17;;
54679;SDS011;40578;53.178;5.846;2023-05-19T07:26:09;10.63;;;5.17;;
54679;SDS011;40578;53.178;5.846;2023-05-19T07:28:35;8.70;;;5.17;;
54679;SDS011;40578;53.178;5.846;2023-05-19T07:31:00;8.80;;;4.90;;
54679;SDS011;40578;53.178;5.846;2023-05-19T07:33:26;11.40;;;4.73;;
54679;SDS011;40578;53.178;5.846;2023-05-19T07:35:52;10.23;;;4.33;;
54679;SDS011;40578;53.178;5.846;2023-05-19T07:38:18;7.27;;;3.73;;
54679;SDS011;40578;53.178;5.846;2023-05-19T07:40:43;12.13;;;3.72;;
54679;SDS011;40578;53.178;5.846;2023-05-19T07:43:09;7.13;;;3.80;;
54679;SDS011;40578;53.178;5.846;2023-05-19T07:45:35;6.45;;;3.58;;
54679;SDS011;40578;53.178;5.846;2023-05-19T07:48:02;6.32;;;3.35;;
54679;SDS011;40578;53.178;5.846;2023-05-19T07:50:28;10.07;;;4.05;;
54679;SDS011;40578;53.178;5.846;2023-05-19T07:52:53;11.23;;;3.87;;
54679;SDS011;40578;53.178;5.846;2023-05-19T07:55:19;7.85;;;3.60;;
54679;SDS011;40578;53.178;5.846;2023-05-19T07:57:47;8.75;;;3.90;;
54679;SDS011;40578;53.178;5.846;2023-05-19T08:00:13;8.85;;;3.95;;
54679;SDS011;40578;53.178;5.846;2023-05-19T08:02:39;9.40;;;4.35;;
54679;SDS011;40578;53.178;5.846;2023-05-19T08:05:05;10.87;;;4.07;;
54679;SDS011;40578;53.178;5.846;2023-05-19T08:07:33;6.82;;;3.70;;
54679;SDS011;40578;53.178;5.846;2023-05-19T08:09:58;7.37;;;3.80;;
54679;SDS011;40578;53.178;5.846;2023-05-19T08:12:24;9.27;;;3.97;;
54679;SDS011;40578;53.178;5.846;2023-05-19T08:14:50;7.13;;;3.47;;
54679;SDS011;40578;53.178;5.846;2023-05-19T08:17:16;5.68;;;3.53;;
54679;SDS011;40578;53.178;5.846;2023-05-19T08:19:42;7.77;;;4.00;;
54679;SDS011;40578;53.178;5.846;2023-05-19T08:22:07;10.13;;;4.30;;
54679;SDS011;40578;53.178;5.846;2023-05-19T08:24:33;9.53;;;3.67;;
54679;SDS011;40578;53.178;5.846;2023-05-19T08:26:58;7.30;;;3.90;;
54679;SDS011;40578;53.178;5.846;2023-05-19T08:29:24;8.07;;;3.90;;
54679;SDS011;40578;53.178;5.846;2023-05-19T08:31:50;7.87;;;3.63;;
54679;SDS011;40578;53.178;5.846;2023-05-19T08:34:17;7.57;;;3.45;;
54679;SDS011;40578;53.178;5.846;2023-05-19T08:36:46;8.35;;;3.90;;
54679;SDS011;40578;53.178;5.846;2023-05-19T08:39:12;7.63;;;4.57;;
54679;SDS011;40578;53.178;5.846;2023-05-19T08:41:38;9.10;;;4.25;;
54679;SDS011;40578;53.178;5.846;2023-05-19T08:44:04;9.17;;;3.80;;
54679;SDS011;40578;53.178;5.846;2023-05-19T08:46:29;9.07;;;4.17;;
54679;SDS011;40578;53.178;5.846;2023-05-19T08:49:00;9.33;;;4.23;;
54679;SDS011;40578;53.178;5.846;2023-05-19T08:51:38;8.10;;;4.15;;
54679;SDS011;40578;53.178;5.846;2023-05-19T08:54:21;9.77;;;3.97;;
54679;SDS011;40578;53.178;5.846;2023-05-19T08:56:54;10.55;;;4.10;;
54679;SDS011;40578;53.178;5.846;2023-05-19T08:59:20;10.87;;;4.63;;
54679;SDS011;40578;53.178;5.846;2023-05-19T09:01:46;10.45;;;4.68;;
54679;SDS011;40578;53.178;5.846;2023-05-19T09:04:14;7.03;;;4.20;;
54679;SDS011;40578;53.178;5.846;2023-05-19T09:06:40;7.75;;;4.32;;
54679;SDS011;40578;53.178;5.846;2023-05-19T09:09:08;10.00;;;4.80;;
54679;SDS011;40578;53.178;5.846;2023-05-19T09:11:34;8.83;;;4.47;;
54679;SDS011;40578;53.178;5.846;2023-05-19T09:14:01;8.98;;;4.22;;
54679;SDS011;40578;53.178;5.846;2023-05-19T09:16:27;9.60;;;5.18;;
54679;SDS011;40578;53.178;5.846;2023-05-19T09:18:54;10.50;;;5.23;;
54679;SDS011;40578;53.178;5.846;2023-05-19T09:21:25;8.80;;;4.90;;
54679;SDS011;40578;53.178;5.846;2023-05-19T09:23:55;8.63;;;4.63;;
54679;SDS011;40578;53.178;5.846;2023-05-19T09:26:23;12.45;;;4.63;;
54679;SDS011;40578;53.178;5.846;2023-05-19T09:28:49;10.10;;;4.70;;
54679;SDS011;40578;53.178;5.846;2023-05-19T09:31:14;9.37;;;4.67;;
54679;SDS011;40578;53.178;5.846;2023-05-19T09:33:41;10.57;;;5.10;;
54679;SDS011;40578;53.178;5.846;2023-05-19T09:36:07;9.20;;;4.80;;
54679;SDS011;40578;53.178;5.846;2023-05-19T09:38:35;10.77;;;4.85;;
54679;SDS011;40578;53.178;5.846;2023-05-19T09:41:02;8.98;;;4.63;;
54679;SDS011;40578;53.178;5.846;2023-05-19T09:43:29;8.38;;;5.20;;
54679;SDS011;40578;53.178;5.846;2023-05-19T09:46:07;9.73;;;4.75;;
54679;SDS011;40578;53.178;5.846;2023-05-19T09:48:35;7.47;;;4.82;;
54679;SDS011;40578;53.178;5.846;2023-05-19T09:51:02;8.48;;;4.68;;
54679;SDS011;40578;53.178;5.846;2023-05-19T09:53:29;7.80;;;4.70;;
54679;SDS011;40578;53.178;5.846;2023-05-19T09:55:57;10.73;;;4.65;;
54679;SDS011;40578;53.178;5.846;2023-05-19T09:58:29;9.25;;;4.90;;
54679;SDS011;40578;53.178;5.846;2023-05-19T10:00:55;8.07;;;4.75;;
54679;SDS011;40578;53.178;5.846;2023-05-19T10:03:23;7.10;;;4.50;;
54679;SDS011;40578;53.178;5.846;2023-05-19T10:05:50;7.43;;;4.55;;
54679;SDS011;40578;53.178;5.846;2023-05-19T10:08:17;9.85;;;4.75;;
54679;SDS011;40578;53.178;5.846;2023-05-19T10:10:46;7.60;;;4.50;;
54679;SDS011;40578;53.178;5.846;2023-05-19T10:13:12;8.27;;;4.53;;
54679;SDS011;40578;53.178;5.846;2023-05-19T10:15:41;9.32;;;4.70;;
54679;SDS011;40578;53.178;5.846;2023-05-19T10:18:10;6.28;;;4.10;;
54679;SDS011;40578;53.178;5.846;2023-05-19T10:20:36;7.15;;;4.05;;
54679;SDS011;40578;53.178;5.846;2023-05-19T10:23:03;8.85;;;4.60;;
54679;SDS011;40578;53.178;5.846;2023-05-19T10:25:30;8.57;;;4.65;;
54679;SDS011;40578;53.178;5.846;2023-05-19T10:28:00;8.25;;;4.38;;
54679;SDS011;40578;53.178;5.846;2023-05-19T10:30:35;7.13;;;4.43;;
54679;SDS011;40578;53.178;5.846;2023-05-19T10:33:05;7.95;;;4.75;;
54679;SDS011;40578;53.178;5.846;2023-05-19T10:35:58;7.20;;;4.10;;
54679;SDS011;40578;53.178;5.846;2023-05-19T10:38:47;6.13;;;4.22;;
54679;SDS011;40578;53.178;5.846;2023-05-19T10:46:54;9.52;;;4.32;;
54679;SDS011;40578;53.178;5.846;2023-05-19T10:49:20;7.67;;;5.17;;
54679;SDS011;40578;53.178;5.846;2023-05-19T10:51:46;9.32;;;4.13;;
54679;SDS011;40578;53.178;5.846;2023-05-19T10:54:12;8.80;;;4.60;;
54679;SDS011;40578;53.178;5.846;2023-05-19T10:56:41;9.43;;;4.75;;
54679;SDS011;40578;53.178;5.846;2023-05-19T10:59:29;8.65;;;4.55;;
54679;SDS011;40578;53.178;5.846;2023-05-19T11:01:56;7.97;;;4.00;;
54679;SDS011;40578;53.178;5.846;2023-05-19T11:07:20;11.73;;;4.68;;
54679;SDS011;40578;53.178;5.846;2023-05-19T11:09:48;6.68;;;3.92;;
54679;SDS011;40578;53.178;5.846;2023-05-19T11:12:18;9.15;;;4.35;;
54679;SDS011;40578;53.178;5.846;2023-05-19T11:14:46;6.82;;;4.10;;
54679;SDS011;40578;53.178;5.846;2023-05-19T11:17:12;8.37;;;4.20;;
54679;SDS011;40578;53.178;5.846;2023-05-19T11:19:39;8.38;;;4.20;;
54679;SDS011;40578;53.178;5.846;2023-05-19T11:22:21;9.32;;;4.07;;
54679;SDS011;40578;53.178;5.846;2023-05-19T11:24:48;7.35;;;3.85;;
54679;SDS011;40578;53.178;5.846;2023-05-19T11:29:44;8.05;;;4.20;;
54679;SDS011;40578;53.178;5.846;2023-05-19T11:32:12;9.30;;;4.18;;
54679;SDS011;40578;53.178;5.846;2023-05-19T11:34:38;8.27;;;4.07;;
54679;SDS011;40578;53.178;5.846;2023-05-19T11:37:07;8.48;;;4.38;;
54679;SDS011;40578;53.178;5.846;2023-05-19T11:39:33;7.78;;;3.75;;
54679;SDS011;40578;53.178;5.846;2023-05-19T11:41:59;8.10;;;3.97;;
54679;SDS011;40578;53.178;5.846;2023-05-19T11:44:25;8.20;;;3.90;;
54679;SDS011;40578;53.178;5.846;2023-05-19T11:46:50;8.23;;;3.73;;
54679;SDS011;40578;53.178;5.846;2023-05-19T11:49:16;8.25;;;4.05;;
54679;SDS011;40578;53.178;5.846;2023-05-19T11:51:43;6.80;;;3.42;;
54679;SDS011;40578;53.178;5.846;2023-05-19T11:56:39;8.45;;;4.22;;
54679;SDS011;40578;53.178;5.846;2023-05-19T11:59:05;8.90;;;4.15;;
54679;SDS011;40578;53.178;5.846;2023-05-19T12:01:32;8.15;;;3.75;;
54679;SDS011;40578;53.178;5.846;2023-05-19T12:03:58;7.50;;;3.90;;
54679;SDS011;40578;53.178;5.846;2023-05-19T12:06:25;10.73;;;3.85;;
54679;SDS011;40578;53.178;5.846;2023-05-19T12:08:51;9.40;;;4.85;;
54679;SDS011;40578;53.178;5.846;2023-05-19T12:11:21;8.13;;;4.20;;
54679;SDS011;40578;53.178;5.846;2023-05-19T12:13:47;11.93;;;4.47;;
54679;SDS011;40578;53.178;5.846;2023-05-19T12:16:14;8.40;;;4.03;;
54679;SDS011;40578;53.178;5.846;2023-05-19T12:18:44;9.23;;;3.92;;
54679;SDS011;40578;53.178;5.846;2023-05-19T12:21:09;6.70;;;4.03;;
54679;SDS011;40578;53.178;5.846;2023-05-19T12:23:36;8.90;;;4.32;;
54679;SDS011;40578;53.178;5.846;2023-05-19T12:26:02;6.22;;;4.18;;
54679;SDS011;40578;53.178;5.846;2023-05-19T12:28:29;8.55;;;4.50;;
54679;SDS011;40578;53.178;5.846;2023-05-19T12:30:57;9.88;;;4.72;;
54679;SDS011;40578;53.178;5.846;2023-05-19T12:33:23;9.73;;;4.50;;
54679;SDS011;40578;53.178;5.846;2023-05-19T12:35:49;9.05;;;5.07;;
54679;SDS011;40578;53.178;5.846;2023-05-19T12:38:15;8.23;;;4.35;;
54679;SDS011;40578;53.178;5.846;2023-05-19T12:40:43;11.13;;;4.30;;
54679;SDS011;40578;53.178;5.846;2023-05-19T12:43:17;8.40;;;4.67;;
54679;SDS011;40578;53.178;5.846;2023-05-19T12:45:46;10.10;;;4.40;;
54679;SDS011;40578;53.178;5.846;2023-05-19T12:48:12;7.95;;;4.78;;
54679;SDS011;40578;53.178;5.846;2023-05-19T12:50:42;8.48;;;4.20;;
54679;SDS011;40578;53.178;5.846;2023-05-19T12:53:11;9.25;;;4.30;;
54679;SDS011;40578;53.178;5.846;2023-05-19T12:55:40;8.90;;;4.50;;
54679;SDS011;40578;53.178;5.846;2023-05-19T12:58:12;9.43;;;4.85;;
54679;SDS011;40578;53.178;5.846;2023-05-19T13:00:43;7.45;;;4.93;;
54679;SDS011;40578;53.178;5.846;2023-05-19T13:03:17;9.13;;;5.28;;
54679;SDS011;40578;53.178;5.846;2023-05-19T13:05:44;8.70;;;5.40;;
54679;SDS011;40578;53.178;5.846;2023-05-19T13:08:13;10.02;;;5.88;;
54679;SDS011;40578;53.178;5.846;2023-05-19T13:10:42;12.15;;;5.85;;
54679;SDS011;40578;53.178;5.846;2023-05-19T13:13:10;8.93;;;5.25;;
54679;SDS011;40578;53.178;5.846;2023-05-19T13:15:36;9.57;;;5.88;;
54679;SDS011;40578;53.178;5.846;2023-05-19T13:18:05;10.40;;;6.13;;
54679;SDS011;40578;53.178;5.846;2023-05-19T13:20:35;7.60;;;5.53;;
54679;SDS011;40578;53.178;5.846;2023-05-19T13:23:02;11.65;;;5.53;;
54679;SDS011;40578;53.178;5.846;2023-05-19T13:25:28;10.68;;;5.90;;
54679;SDS011;40578;53.178;5.846;2023-05-19T13:27:54;10.15;;;5.63;;
54679;SDS011;40578;53.178;5.846;2023-05-19T13:30:20;9.75;;;5.30;;
54679;SDS011;40578;53.178;5.846;2023-05-19T13:35:13;10.13;;;4.97;;
54679;SDS011;40578;53.178;5.846;2023-05-19T13:37:40;14.20;;;5.55;;
54679;SDS011;40578;53.178;5.846;2023-05-19T13:40:06;9.60;;;5.82;;
54679;SDS011;40578;53.178;5.846;2023-05-19T13:42:33;9.65;;;5.50;;
54679;SDS011;40578;53.178;5.846;2023-05-19T13:44:59;9.82;;;5.07;;
54679;SDS011;40578;53.178;5.846;2023-05-19T13:47:25;9.57;;;5.60;;
54679;SDS011;40578;53.178;5.846;2023-05-19T13:49:51;12.17;;;5.50;;
54679;SDS011;40578;53.178;5.846;2023-05-19T13:52:17;10.65;;;5.05;;
54679;SDS011;40578;53.178;5.846;2023-05-19T13:54:44;9.90;;;4.95;;
54679;SDS011;40578;53.178;5.846;2023-05-19T13:57:10;8.70;;;5.10;;
54679;SDS011;40578;53.178;5.846;2023-05-19T13:59:36;14.67;;;5.53;;
54679;SDS011;40578;53.178;5.846;2023-05-19T14:02:01;11.47;;;5.17;;
54679;SDS011;40578;53.178;5.846;2023-05-19T14:04:28;8.38;;;5.22;;
54679;SDS011;40578;53.178;5.846;2023-05-19T14:06:53;12.63;;;5.23;;
54679;SDS011;40578;53.178;5.846;2023-05-19T14:09:19;9.98;;;5.07;;
54679;SDS011;40578;53.178;5.846;2023-05-19T14:11:45;9.30;;;5.27;;
54679;SDS011;40578;53.178;5.846;2023-05-19T14:14:11;12.88;;;5.90;;
54679;SDS011;40578;53.178;5.846;2023-05-19T14:16:37;8.93;;;5.17;;
54679;SDS011;40578;53.178;5.846;2023-05-19T14:19:04;9.15;;;5.13;;
54679;SDS011;40578;53.178;5.846;2023-05-19T14:21:29;10.50;;;5.77;;
54679;SDS011;40578;53.178;5.846;2023-05-19T14:26:22;10.55;;;4.95;;
54679;SDS011;40578;53.178;5.846;2023-05-19T14:28:47;10.77;;;4.90;;
54679;SDS011;40578;53.178;5.846;2023-05-19T14:31:13;10.17;;;5.17;;
54679;SDS011;40578;53.178;5.846;2023-05-19T14:33:39;9.83;;;5.50;;
54679;SDS011;40578;53.178;5.846;2023-05-19T14:36:06;9.88;;;5.00;;
54679;SDS011;40578;53.178;5.846;2023-05-19T14:38:32;13.32;;;5.13;;
54679;SDS011;40578;53.178;5.846;2023-05-19T14:40:57;11.80;;;5.83;;
54679;SDS011;40578;53.178;5.846;2023-05-19T14:43:23;11.67;;;5.73;;
54679;SDS011;40578;53.178;5.846;2023-05-19T14:45:49;9.37;;;5.50;;
54679;SDS011;40578;53.178;5.846;2023-05-19T14:48:14;12.47;;;6.03;;
54679;SDS011;40578;53.178;5.846;2023-05-19T14:50:41;8.48;;;5.20;;
54679;SDS011;40578;53.178;5.846;2023-05-19T14:53:07;10.77;;;4.63;;
54679;SDS011;40578;53.178;5.846;2023-05-19T14:55:32;13.67;;;5.53;;
54679;SDS011;40578;53.178;5.846;2023-05-19T14:57:58;12.77;;;5.10;;
54679;SDS011;40578;53.178;5.846;2023-05-19T15:00:23;10.97;;;4.80;;
54679;SDS011;40578;53.178;5.846;2023-05-19T15:02:52;8.82;;;5.03;;
54679;SDS011;40578;53.178;5.846;2023-05-19T15:05:18;9.57;;;4.68;;
54679;SDS011;40578;53.178;5.846;2023-05-19T15:07:44;13.67;;;5.20;;
54679;SDS011;40578;53.178;5.846;2023-05-19T15:10:10;9.37;;;4.70;;
54679;SDS011;40578;53.178;5.846;2023-05-19T15:12:36;12.63;;;5.05;;
54679;SDS011;40578;53.178;5.846;2023-05-19T15:15:02;10.40;;;4.83;;
54679;SDS011;40578;53.178;5.846;2023-05-19T15:17:28;9.02;;;4.60;;
54679;SDS011;40578;53.178;5.846;2023-05-19T15:19:53;11.07;;;5.70;;
54679;SDS011;40578;53.178;5.846;2023-05-19T15:22:19;12.17;;;4.70;;
54679;SDS011;40578;53.178;5.846;2023-05-19T15:24:44;8.60;;;4.20;;
54679;SDS011;40578;53.178;5.846;2023-05-19T15:27:10;12.50;;;5.00;;
54679;SDS011;40578;53.178;5.846;2023-05-19T15:29:36;12.13;;;5.23;;